sensor_id;sensor_type;location;lat;lon;timestamp;P1;durP1;ratioP1;P2;durP2;ratioP2
24034;SDS011;12242;50.952;4.678;2023-02-28T00:02:27;9.25;;;4.38;;
24034;SDS011;12242;50.952;4.678;2023-02-28T00:04:54;12.48;;;4.82;;
24034;SDS011;12242;50.952;4.678;2023-02-28T00:07:27;9.73;;;4.50;;
24034;SDS011;12242;50.952;4.678;2023-02-28T00:09:56;9.30;;;4.70;;
24034;SDS011;12242;50.952;4.678;2023-02-28T00:12:23;8.45;;;4.47;;
24034;SDS011;12242;50.952;4.678;2023-02-28T00:14:51;11.70;;;4.63;;
24034;SDS011;12242;50.952;4.678;2023-02-28T00:17:19;10.35;;;4.35;;
24034;SDS011;12242;50.952;4.678;2023-02-28T00:19:48;8.77;;;4.72;;
24034;SDS011;12242;50.952;4.678;2023-02-28T00:22:16;9.43;;;4.80;;
24034;SDS011;12242;50.952;4.678;2023-02-28T00:24:45;10.85;;;4.53;;
24034;SDS011;12242;50.952;4.678;2023-02-28T00:27:13;9.52;;;4.60;;
24034;SDS011;12242;50.952;4.678;2023-02-28T00:29:41;10.45;;;4.63;;
24034;SDS011;12242;50.952;4.678;2023-02-28T00:32:09;11.57;;;4.85;;
24034;SDS011;12242;50.952;4.678;2023-02-28T00:34:36;13.88;;;5.15;;
24034;SDS011;12242;50.952;4.678;2023-02-28T00:37:07;10.52;;;4.68;;
24034;SDS011;12242;50.952;4.678;2023-02-28T00:39:38;13.13;;;4.65;;
24034;SDS011;12242;50.952;4.678;2023-02-28T00:42:06;11.02;;;5.10;;
24034;SDS011;12242;50.952;4.678;2023-02-28T00:44:35;8.98;;;4.53;;
24034;SDS011;12242;50.952;4.678;2023-02-28T00:47:02;10.35;;;5.15;;
24034;SDS011;12242;50.952;4.678;2023-02-28T00:49:30;11.23;;;4.65;;
24034;SDS011;12242;50.952;4.678;2023-02-28T00:51:57;10.70;;;5.03;;
24034;SDS011;12242;50.952;4.678;2023-02-28T00:54:25;11.35;;;5.18;;
24034;SDS011;12242;50.952;4.678;2023-02-28T00:56:53;8.65;;;4.78;;
24034;SDS011;12242;50.952;4.678;2023-02-28T00:59:21;10.77;;;5.28;;
24034;SDS011;12242;50.952;4.678;2023-02-28T01:01:48;10.48;;;4.95;;
24034;SDS011;12242;50.952;4.678;2023-02-28T01:04:16;10.65;;;5.10;;
24034;SDS011;12242;50.952;4.678;2023-02-28T01:06:43;11.85;;;5.15;;
24034;SDS011;12242;50.952;4.678;2023-02-28T01:09:11;11.10;;;4.93;;
24034;SDS011;12242;50.952;4.678;2023-02-28T01:11:39;13.10;;;5.43;;
24034;SDS011;12242;50.952;4.678;2023-02-28T01:14:08;12.85;;;5.15;;
24034;SDS011;12242;50.952;4.678;2023-02-28T01:16:39;11.32;;;5.43;;
24034;SDS011;12242;50.952;4.678;2023-02-28T01:19:06;9.85;;;5.53;;
24034;SDS011;12242;50.952;4.678;2023-02-28T01:21:34;15.73;;;5.15;;
24034;SDS011;12242;50.952;4.678;2023-02-28T01:24:03;13.43;;;5.90;;
24034;SDS011;12242;50.952;4.678;2023-02-28T01:26:31;13.77;;;5.60;;
24034;SDS011;12242;50.952;4.678;2023-02-28T01:28:59;11.50;;;5.70;;
24034;SDS011;12242;50.952;4.678;2023-02-28T01:31:27;14.38;;;5.85;;
24034;SDS011;12242;50.952;4.678;2023-02-28T01:33:55;12.73;;;6.13;;
24034;SDS011;12242;50.952;4.678;2023-02-28T01:36:23;14.73;;;5.82;;
24034;SDS011;12242;50.952;4.678;2023-02-28T01:38:51;13.57;;;5.60;;
24034;SDS011;12242;50.952;4.678;2023-02-28T01:41:20;15.07;;;5.70;;
24034;SDS011;12242;50.952;4.678;2023-02-28T01:44:07;14.27;;;5.63;;
24034;SDS011;12242;50.952;4.678;2023-02-28T01:47:11;14.18;;;6.03;;
24034;SDS011;12242;50.952;4.678;2023-02-28T01:49:40;11.13;;;5.63;;
24034;SDS011;12242;50.952;4.678;2023-02-28T01:52:07;12.40;;;6.22;;
24034;SDS011;12242;50.952;4.678;2023-02-28T01:54:45;12.85;;;5.93;;
24034;SDS011;12242;50.952;4.678;2023-02-28T01:57:28;12.45;;;6.15;;
24034;SDS011;12242;50.952;4.678;2023-02-28T02:00:05;15.68;;;6.45;;
24034;SDS011;12242;50.952;4.678;2023-02-28T02:02:45;12.18;;;6.28;;
24034;SDS011;12242;50.952;4.678;2023-02-28T02:07:50;15.88;;;6.30;;
24034;SDS011;12242;50.952;4.678;2023-02-28T02:10:22;13.13;;;6.17;;
24034;SDS011;12242;50.952;4.678;2023-02-28T02:18:47;11.15;;;6.20;;
24034;SDS011;12242;50.952;4.678;2023-02-28T02:43:31;14.35;;;7.10;;
24034;SDS011;12242;50.952;4.678;2023-02-28T02:46:04;15.30;;;7.25;;
24034;SDS011;12242;50.952;4.678;2023-02-28T02:48:37;15.23;;;6.93;;
24034;SDS011;12242;50.952;4.678;2023-02-28T02:51:09;13.52;;;7.18;;
24034;SDS011;12242;50.952;4.678;2023-02-28T02:53:49;17.13;;;7.43;;
24034;SDS011;12242;50.952;4.678;2023-02-28T02:58:53;15.55;;;7.13;;
24034;SDS011;12242;50.952;4.678;2023-02-28T03:01:27;16.95;;;7.13;;
24034;SDS011;12242;50.952;4.678;2023-02-28T03:03:59;14.57;;;7.38;;
24034;SDS011;12242;50.952;4.678;2023-02-28T03:06:30;14.35;;;7.35;;
24034;SDS011;12242;50.952;4.678;2023-02-28T03:08:57;16.17;;;8.23;;
24034;SDS011;12242;50.952;4.678;2023-02-28T03:11:26;15.48;;;7.30;;
24034;SDS011;12242;50.952;4.678;2023-02-28T03:13:59;14.23;;;7.55;;
24034;SDS011;12242;50.952;4.678;2023-02-28T03:30:51;14.18;;;6.38;;
24034;SDS011;12242;50.952;4.678;2023-02-28T03:33:28;14.55;;;6.95;;
24034;SDS011;12242;50.952;4.678;2023-02-28T03:36:04;12.30;;;6.88;;
24034;SDS011;12242;50.952;4.678;2023-02-28T03:38:45;17.05;;;7.78;;
24034;SDS011;12242;50.952;4.678;2023-02-28T03:43:49;13.38;;;6.30;;
24034;SDS011;12242;50.952;4.678;2023-02-28T03:46:24;12.63;;;6.05;;
24034;SDS011;12242;50.952;4.678;2023-02-28T03:48:59;16.40;;;6.50;;
24034;SDS011;12242;50.952;4.678;2023-02-28T03:51:32;12.48;;;6.57;;
24034;SDS011;12242;50.952;4.678;2023-02-28T03:54:05;13.75;;;7.10;;
24034;SDS011;12242;50.952;4.678;2023-02-28T03:56:41;14.15;;;7.05;;
24034;SDS011;12242;50.952;4.678;2023-02-28T03:59:20;12.48;;;6.65;;
24034;SDS011;12242;50.952;4.678;2023-02-28T04:01:53;14.05;;;6.65;;
24034;SDS011;12242;50.952;4.678;2023-02-28T04:04:22;13.27;;;6.75;;
24034;SDS011;12242;50.952;4.678;2023-02-28T04:06:50;15.25;;;7.68;;
24034;SDS011;12242;50.952;4.678;2023-02-28T04:09:18;14.40;;;7.28;;
24034;SDS011;12242;50.952;4.678;2023-02-28T04:11:50;15.35;;;7.18;;
24034;SDS011;12242;50.952;4.678;2023-02-28T04:14:20;16.67;;;7.35;;
24034;SDS011;12242;50.952;4.678;2023-02-28T04:16:47;15.60;;;7.78;;
24034;SDS011;12242;50.952;4.678;2023-02-28T04:19:15;15.85;;;7.80;;
24034;SDS011;12242;50.952;4.678;2023-02-28T04:21:44;16.30;;;7.22;;
24034;SDS011;12242;50.952;4.678;2023-02-28T04:24:17;13.20;;;7.45;;
24034;SDS011;12242;50.952;4.678;2023-02-28T04:26:47;17.13;;;7.38;;
24034;SDS011;12242;50.952;4.678;2023-02-28T04:29:30;20.63;;;7.40;;
24034;SDS011;12242;50.952;4.678;2023-02-28T04:31:59;16.50;;;7.50;;
24034;SDS011;12242;50.952;4.678;2023-02-28T04:34:28;13.13;;;6.95;;
24034;SDS011;12242;50.952;4.678;2023-02-28T04:36:57;15.48;;;7.82;;
24034;SDS011;12242;50.952;4.678;2023-02-28T04:39:39;16.77;;;7.72;;
24034;SDS011;12242;50.952;4.678;2023-02-28T04:42:07;14.93;;;7.53;;
24034;SDS011;12242;50.952;4.678;2023-02-28T04:44:34;16.38;;;8.00;;
24034;SDS011;12242;50.952;4.678;2023-02-28T04:47:02;16.27;;;7.85;;
24034;SDS011;12242;50.952;4.678;2023-02-28T04:49:29;16.23;;;7.80;;
24034;SDS011;12242;50.952;4.678;2023-02-28T04:51:58;19.63;;;8.25;;
24034;SDS011;12242;50.952;4.678;2023-02-28T04:54:25;16.25;;;7.95;;
24034;SDS011;12242;50.952;4.678;2023-02-28T04:56:53;20.40;;;8.68;;
24034;SDS011;12242;50.952;4.678;2023-02-28T04:59:21;15.20;;;7.72;;
24034;SDS011;12242;50.952;4.678;2023-02-28T05:01:49;13.65;;;8.30;;
24034;SDS011;12242;50.952;4.678;2023-02-28T05:04:17;14.18;;;7.68;;
24034;SDS011;12242;50.952;4.678;2023-02-28T05:06:44;15.80;;;7.57;;
24034;SDS011;12242;50.952;4.678;2023-02-28T05:09:12;15.45;;;7.65;;
24034;SDS011;12242;50.952;4.678;2023-02-28T05:11:40;17.05;;;7.78;;
24034;SDS011;12242;50.952;4.678;2023-02-28T05:14:12;17.55;;;8.15;;
24034;SDS011;12242;50.952;4.678;2023-02-28T05:16:41;17.38;;;7.68;;
24034;SDS011;12242;50.952;4.678;2023-02-28T05:19:09;16.30;;;7.93;;
24034;SDS011;12242;50.952;4.678;2023-02-28T05:21:49;14.85;;;7.85;;
24034;SDS011;12242;50.952;4.678;2023-02-28T05:24:19;15.77;;;7.72;;
24034;SDS011;12242;50.952;4.678;2023-02-28T05:26:50;14.10;;;7.95;;
24034;SDS011;12242;50.952;4.678;2023-02-28T05:29:19;17.77;;;7.82;;
24034;SDS011;12242;50.952;4.678;2023-02-28T05:31:47;18.27;;;7.97;;
24034;SDS011;12242;50.952;4.678;2023-02-28T05:34:15;17.27;;;8.02;;
24034;SDS011;12242;50.952;4.678;2023-02-28T05:36:43;15.13;;;8.07;;
24034;SDS011;12242;50.952;4.678;2023-02-28T05:39:11;18.13;;;8.18;;
24034;SDS011;12242;50.952;4.678;2023-02-28T05:41:40;14.60;;;7.97;;
24034;SDS011;12242;50.952;4.678;2023-02-28T05:44:09;16.60;;;8.27;;
24034;SDS011;12242;50.952;4.678;2023-02-28T05:46:36;17.52;;;7.72;;
24034;SDS011;12242;50.952;4.678;2023-02-28T05:49:05;17.15;;;8.00;;
24034;SDS011;12242;50.952;4.678;2023-02-28T05:51:32;15.25;;;7.80;;
24034;SDS011;12242;50.952;4.678;2023-02-28T05:54:03;14.23;;;7.78;;
24034;SDS011;12242;50.952;4.678;2023-02-28T05:56:31;15.30;;;6.90;;
24034;SDS011;12242;50.952;4.678;2023-02-28T05:58:58;16.35;;;7.68;;
24034;SDS011;12242;50.952;4.678;2023-02-28T06:04:07;13.02;;;6.68;;
24034;SDS011;12242;50.952;4.678;2023-02-28T06:06:56;14.50;;;7.50;;
24034;SDS011;12242;50.952;4.678;2023-02-28T06:09:24;14.57;;;7.70;;
24034;SDS011;12242;50.952;4.678;2023-02-28T06:11:52;16.60;;;8.13;;
24034;SDS011;12242;50.952;4.678;2023-02-28T06:14:20;13.00;;;7.10;;
24034;SDS011;12242;50.952;4.678;2023-02-28T06:16:48;15.10;;;7.18;;
24034;SDS011;12242;50.952;4.678;2023-02-28T06:19:16;19.33;;;7.40;;
24034;SDS011;12242;50.952;4.678;2023-02-28T06:21:43;13.52;;;7.00;;
24034;SDS011;12242;50.952;4.678;2023-02-28T06:24:12;15.85;;;7.65;;
24034;SDS011;12242;50.952;4.678;2023-02-28T06:26:39;17.27;;;7.25;;
24034;SDS011;12242;50.952;4.678;2023-02-28T06:29:07;13.35;;;6.40;;
24034;SDS011;12242;50.952;4.678;2023-02-28T06:31:35;18.05;;;7.45;;
24034;SDS011;12242;50.952;4.678;2023-02-28T06:34:02;14.35;;;7.72;;
24034;SDS011;12242;50.952;4.678;2023-02-28T06:36:30;14.45;;;7.82;;
24034;SDS011;12242;50.952;4.678;2023-02-28T06:38:58;13.98;;;7.40;;
24034;SDS011;12242;50.952;4.678;2023-02-28T06:41:26;15.40;;;7.43;;
24034;SDS011;12242;50.952;4.678;2023-02-28T06:43:54;13.68;;;6.60;;
24034;SDS011;12242;50.952;4.678;2023-02-28T06:46:22;14.40;;;6.75;;
24034;SDS011;12242;50.952;4.678;2023-02-28T06:48:50;18.38;;;7.22;;
24034;SDS011;12242;50.952;4.678;2023-02-28T06:51:19;17.35;;;7.25;;
24034;SDS011;12242;50.952;4.678;2023-02-28T06:53:49;14.00;;;6.82;;
24034;SDS011;12242;50.952;4.678;2023-02-28T06:56:17;14.80;;;7.10;;
24034;SDS011;12242;50.952;4.678;2023-02-28T06:58:47;14.60;;;7.07;;
24034;SDS011;12242;50.952;4.678;2023-02-28T07:01:16;16.13;;;6.65;;
24034;SDS011;12242;50.952;4.678;2023-02-28T07:03:45;16.23;;;7.07;;
24034;SDS011;12242;50.952;4.678;2023-02-28T07:06:13;15.77;;;6.47;;
24034;SDS011;12242;50.952;4.678;2023-02-28T07:08:40;14.70;;;6.82;;
24034;SDS011;12242;50.952;4.678;2023-02-28T07:11:08;14.07;;;6.35;;
24034;SDS011;12242;50.952;4.678;2023-02-28T07:13:36;11.88;;;6.03;;
24034;SDS011;12242;50.952;4.678;2023-02-28T07:16:04;12.77;;;5.90;;
24034;SDS011;12242;50.952;4.678;2023-02-28T07:18:34;12.43;;;6.22;;
24034;SDS011;12242;50.952;4.678;2023-02-28T07:21:03;12.85;;;5.40;;
24034;SDS011;12242;50.952;4.678;2023-02-28T07:23:31;12.30;;;5.43;;
24034;SDS011;12242;50.952;4.678;2023-02-28T07:25:59;15.23;;;5.38;;
24034;SDS011;12242;50.952;4.678;2023-02-28T07:28:27;13.30;;;5.78;;
24034;SDS011;12242;50.952;4.678;2023-02-28T07:30:55;12.40;;;5.65;;
24034;SDS011;12242;50.952;4.678;2023-02-28T07:33:22;10.40;;;5.55;;
24034;SDS011;12242;50.952;4.678;2023-02-28T07:35:50;12.40;;;5.38;;
24034;SDS011;12242;50.952;4.678;2023-02-28T07:38:18;13.70;;;5.03;;
24034;SDS011;12242;50.952;4.678;2023-02-28T07:40:46;14.27;;;6.15;;
24034;SDS011;12242;50.952;4.678;2023-02-28T07:43:13;11.80;;;5.47;;
24034;SDS011;12242;50.952;4.678;2023-02-28T07:45:41;13.48;;;5.00;;
24034;SDS011;12242;50.952;4.678;2023-02-28T07:48:08;10.70;;;4.93;;
24034;SDS011;12242;50.952;4.678;2023-02-28T07:50:36;16.13;;;5.05;;
24034;SDS011;12242;50.952;4.678;2023-02-28T07:53:04;9.25;;;5.18;;
24034;SDS011;12242;50.952;4.678;2023-02-28T07:55:32;11.98;;;5.07;;
24034;SDS011;12242;50.952;4.678;2023-02-28T07:57:59;12.77;;;5.35;;
24034;SDS011;12242;50.952;4.678;2023-02-28T08:00:27;10.82;;;5.10;;
24034;SDS011;12242;50.952;4.678;2023-02-28T08:02:55;17.55;;;5.25;;
24034;SDS011;12242;50.952;4.678;2023-02-28T08:05:23;10.40;;;4.38;;
24034;SDS011;12242;50.952;4.678;2023-02-28T08:07:51;9.82;;;4.18;;
24034;SDS011;12242;50.952;4.678;2023-02-28T08:10:20;11.30;;;3.92;;
24034;SDS011;12242;50.952;4.678;2023-02-28T08:12:47;7.13;;;3.72;;
24034;SDS011;12242;50.952;4.678;2023-02-28T08:15:15;8.95;;;4.32;;
24034;SDS011;12242;50.952;4.678;2023-02-28T08:17:42;11.10;;;3.75;;
24034;SDS011;12242;50.952;4.678;2023-02-28T08:20:10;11.30;;;3.80;;
24034;SDS011;12242;50.952;4.678;2023-02-28T08:22:38;8.38;;;4.10;;
24034;SDS011;12242;50.952;4.678;2023-02-28T08:25:05;8.63;;;3.80;;
24034;SDS011;12242;50.952;4.678;2023-02-28T08:27:34;10.05;;;3.70;;
24034;SDS011;12242;50.952;4.678;2023-02-28T08:30:03;11.45;;;3.40;;
24034;SDS011;12242;50.952;4.678;2023-02-28T08:32:32;7.93;;;3.80;;
24034;SDS011;12242;50.952;4.678;2023-02-28T08:35:00;7.40;;;3.53;;
24034;SDS011;12242;50.952;4.678;2023-02-28T08:37:29;13.07;;;3.30;;
24034;SDS011;12242;50.952;4.678;2023-02-28T08:39:57;9.45;;;3.00;;
24034;SDS011;12242;50.952;4.678;2023-02-28T08:42:24;8.40;;;2.75;;
24034;SDS011;12242;50.952;4.678;2023-02-28T08:44:52;6.05;;;2.83;;
24034;SDS011;12242;50.952;4.678;2023-02-28T08:47:19;6.10;;;2.45;;
24034;SDS011;12242;50.952;4.678;2023-02-28T08:49:47;4.25;;;2.38;;
24034;SDS011;12242;50.952;4.678;2023-02-28T08:52:15;5.38;;;2.70;;
24034;SDS011;12242;50.952;4.678;2023-02-28T08:54:42;7.80;;;2.45;;
24034;SDS011;12242;50.952;4.678;2023-02-28T08:57:09;5.55;;;2.17;;
24034;SDS011;12242;50.952;4.678;2023-02-28T08:59:37;6.40;;;2.67;;
24034;SDS011;12242;50.952;4.678;2023-02-28T09:02:04;5.35;;;2.25;;
24034;SDS011;12242;50.952;4.678;2023-02-28T09:04:33;6.78;;;2.25;;
24034;SDS011;12242;50.952;4.678;2023-02-28T09:07:00;5.05;;;2.17;;
24034;SDS011;12242;50.952;4.678;2023-02-28T09:09:28;5.30;;;2.40;;
24034;SDS011;12242;50.952;4.678;2023-02-28T09:11:56;6.47;;;2.42;;
24034;SDS011;12242;50.952;4.678;2023-02-28T09:14:24;4.05;;;2.20;;
24034;SDS011;12242;50.952;4.678;2023-02-28T09:16:52;4.38;;;2.00;;
24034;SDS011;12242;50.952;4.678;2023-02-28T09:19:19;5.05;;;2.35;;
24034;SDS011;12242;50.952;4.678;2023-02-28T09:21:47;8.38;;;2.50;;
24034;SDS011;12242;50.952;4.678;2023-02-28T09:24:15;5.35;;;1.80;;
24034;SDS011;12242;50.952;4.678;2023-02-28T09:26:42;5.32;;;2.28;;
24034;SDS011;12242;50.952;4.678;2023-02-28T09:29:30;5.57;;;2.20;;
24034;SDS011;12242;50.952;4.678;2023-02-28T09:31:58;6.32;;;2.00;;
24034;SDS011;12242;50.952;4.678;2023-02-28T09:34:26;9.50;;;2.35;;
24034;SDS011;12242;50.952;4.678;2023-02-28T09:36:55;5.50;;;2.10;;
24034;SDS011;12242;50.952;4.678;2023-02-28T09:39:22;5.82;;;1.80;;
24034;SDS011;12242;50.952;4.678;2023-02-28T09:41:51;5.53;;;1.50;;
24034;SDS011;12242;50.952;4.678;2023-02-28T09:44:22;6.15;;;1.80;;
24034;SDS011;12242;50.952;4.678;2023-02-28T09:47:07;3.03;;;1.58;;
24034;SDS011;12242;50.952;4.678;2023-02-28T09:49:50;3.42;;;1.50;;
24034;SDS011;12242;50.952;4.678;2023-02-28T09:52:21;2.75;;;1.30;;
24034;SDS011;12242;50.952;4.678;2023-02-28T09:54:52;4.15;;;1.30;;
24034;SDS011;12242;50.952;4.678;2023-02-28T09:57:41;3.42;;;1.35;;
24034;SDS011;12242;50.952;4.678;2023-02-28T10:00:16;3.15;;;1.20;;
24034;SDS011;12242;50.952;4.678;2023-02-28T10:05:29;2.97;;;1.25;;
24034;SDS011;12242;50.952;4.678;2023-02-28T10:08:15;5.60;;;1.08;;
24034;SDS011;12242;50.952;4.678;2023-02-28T10:10:49;1.90;;;1.00;;
24034;SDS011;12242;50.952;4.678;2023-02-28T10:13:26;4.43;;;1.40;;
24034;SDS011;12242;50.952;4.678;2023-02-28T10:16:07;3.03;;;1.25;;
24034;SDS011;12242;50.952;4.678;2023-02-28T10:18:47;1.65;;;0.85;;
24034;SDS011;12242;50.952;4.678;2023-02-28T10:21:23;4.32;;;1.40;;
24034;SDS011;12242;50.952;4.678;2023-02-28T10:24:02;3.72;;;1.20;;
24034;SDS011;12242;50.952;4.678;2023-02-28T10:26:41;2.08;;;1.13;;
24034;SDS011;12242;50.952;4.678;2023-02-28T10:29:12;2.60;;;1.17;;
24034;SDS011;12242;50.952;4.678;2023-02-28T10:31:39;3.53;;;1.13;;
24034;SDS011;12242;50.952;4.678;2023-02-28T10:34:08;2.25;;;1.08;;
24034;SDS011;12242;50.952;4.678;2023-02-28T10:36:39;2.45;;;0.90;;
24034;SDS011;12242;50.952;4.678;2023-02-28T10:42:20;3.45;;;1.20;;
24034;SDS011;12242;50.952;4.678;2023-02-28T10:45:26;6.22;;;1.45;;
24034;SDS011;12242;50.952;4.678;2023-02-28T10:58:31;3.35;;;1.38;;
24034;SDS011;12242;50.952;4.678;2023-02-28T11:01:14;3.40;;;1.05;;
24034;SDS011;12242;50.952;4.678;2023-02-28T11:03:43;3.75;;;1.20;;
24034;SDS011;12242;50.952;4.678;2023-02-28T11:08:52;2.58;;;1.00;;
24034;SDS011;12242;50.952;4.678;2023-02-28T11:11:22;2.78;;;0.98;;
24034;SDS011;12242;50.952;4.678;2023-02-28T11:13:56;5.38;;;1.85;;
24034;SDS011;12242;50.952;4.678;2023-02-28T11:16:33;3.60;;;1.33;;
24034;SDS011;12242;50.952;4.678;2023-02-28T11:19:03;2.60;;;1.05;;
24034;SDS011;12242;50.952;4.678;2023-02-28T11:21:34;2.75;;;1.38;;
24034;SDS011;12242;50.952;4.678;2023-02-28T11:24:50;2.30;;;1.30;;
24034;SDS011;12242;50.952;4.678;2023-02-28T11:27:02;3.60;;;1.20;;
24034;SDS011;12242;50.952;4.678;2023-02-28T11:29:31;4.20;;;1.38;;
24034;SDS011;12242;50.952;4.678;2023-02-28T11:34:31;3.53;;;1.52;;
24034;SDS011;12242;50.952;4.678;2023-02-28T11:36:59;3.60;;;1.23;;
24034;SDS011;12242;50.952;4.678;2023-02-28T11:39:28;2.90;;;1.10;;
24034;SDS011;12242;50.952;4.678;2023-02-28T11:47:42;2.80;;;1.20;;
24034;SDS011;12242;50.952;4.678;2023-02-28T11:53:17;4.13;;;1.40;;
24034;SDS011;12242;50.952;4.678;2023-02-28T11:55:52;4.57;;;1.10;;
24034;SDS011;12242;50.952;4.678;2023-02-28T12:01:09;4.25;;;1.40;;
24034;SDS011;12242;50.952;4.678;2023-02-28T12:03:58;2.78;;;1.15;;
24034;SDS011;12242;50.952;4.678;2023-02-28T12:06:43;4.72;;;1.30;;
24034;SDS011;12242;50.952;4.678;2023-02-28T12:20:25;2.40;;;1.00;;
24034;SDS011;12242;50.952;4.678;2023-02-28T12:23:23;2.67;;;1.10;;
24034;SDS011;12242;50.952;4.678;2023-02-28T12:26:18;4.03;;;0.90;;
24034;SDS011;12242;50.952;4.678;2023-02-28T12:29:14;2.28;;;1.17;;
24034;SDS011;12242;50.952;4.678;2023-02-28T12:32:16;2.47;;;1.02;;
24034;SDS011;12242;50.952;4.678;2023-02-28T12:34:55;3.20;;;1.10;;
24034;SDS011;12242;50.952;4.678;2023-02-28T12:40:15;4.25;;;1.15;;
24034;SDS011;12242;50.952;4.678;2023-02-28T12:42:50;2.97;;;1.35;;
24034;SDS011;12242;50.952;4.678;2023-02-28T12:48:01;2.45;;;1.15;;
24034;SDS011;12242;50.952;4.678;2023-02-28T12:50:32;2.80;;;1.10;;
24034;SDS011;12242;50.952;4.678;2023-02-28T12:55:40;1.90;;;1.10;;
24034;SDS011;12242;50.952;4.678;2023-02-28T12:58:19;1.92;;;1.15;;
24034;SDS011;12242;50.952;4.678;2023-02-28T13:09:23;2.88;;;1.30;;
24034;SDS011;12242;50.952;4.678;2023-02-28T13:11:52;2.65;;;1.40;;
24034;SDS011;12242;50.952;4.678;2023-02-28T13:16:58;3.00;;;1.35;;
24034;SDS011;12242;50.952;4.678;2023-02-28T13:19:27;2.50;;;1.20;;
24034;SDS011;12242;50.952;4.678;2023-02-28T13:22:00;2.72;;;1.42;;
24034;SDS011;12242;50.952;4.678;2023-02-28T13:24:39;2.97;;;1.50;;
24034;SDS011;12242;50.952;4.678;2023-02-28T13:29:43;5.35;;;1.20;;
24034;SDS011;12242;50.952;4.678;2023-02-28T13:32:33;3.13;;;1.30;;
24034;SDS011;12242;50.952;4.678;2023-02-28T13:37:35;4.28;;;1.23;;
24034;SDS011;12242;50.952;4.678;2023-02-28T13:42:57;4.40;;;1.42;;
24034;SDS011;12242;50.952;4.678;2023-02-28T13:45:28;4.10;;;1.50;;
24034;SDS011;12242;50.952;4.678;2023-02-28T13:48:02;2.97;;;1.45;;
24034;SDS011;12242;50.952;4.678;2023-02-28T13:50:42;3.63;;;1.40;;
24034;SDS011;12242;50.952;4.678;2023-02-28T14:01:30;3.20;;;1.52;;
24034;SDS011;12242;50.952;4.678;2023-02-28T14:06:38;2.78;;;1.67;;
24034;SDS011;12242;50.952;4.678;2023-02-28T14:18:17;3.58;;;1.65;;
24034;SDS011;12242;50.952;4.678;2023-02-28T14:21:01;3.55;;;1.45;;
24034;SDS011;12242;50.952;4.678;2023-02-28T14:23:50;4.25;;;1.60;;
24034;SDS011;12242;50.952;4.678;2023-02-28T14:26:46;4.35;;;1.65;;
24034;SDS011;12242;50.952;4.678;2023-02-28T14:32:45;4.65;;;1.52;;
24034;SDS011;12242;50.952;4.678;2023-02-28T14:38:25;2.90;;;1.45;;
24034;SDS011;12242;50.952;4.678;2023-02-28T14:40:57;4.38;;;1.80;;
24034;SDS011;12242;50.952;4.678;2023-02-28T14:43:28;3.50;;;1.48;;
24034;SDS011;12242;50.952;4.678;2023-02-28T14:45:56;4.50;;;1.70;;
24034;SDS011;12242;50.952;4.678;2023-02-28T14:48:29;4.60;;;1.70;;
24034;SDS011;12242;50.952;4.678;2023-02-28T14:50:57;2.42;;;1.58;;
24034;SDS011;12242;50.952;4.678;2023-02-28T14:53:28;3.53;;;1.63;;
24034;SDS011;12242;50.952;4.678;2023-02-28T14:56:02;5.07;;;1.85;;
24034;SDS011;12242;50.952;4.678;2023-02-28T14:58:30;4.63;;;1.77;;
24034;SDS011;12242;50.952;4.678;2023-02-28T15:01:01;4.15;;;1.70;;
24034;SDS011;12242;50.952;4.678;2023-02-28T15:03:34;4.07;;;1.70;;
24034;SDS011;12242;50.952;4.678;2023-02-28T15:06:05;4.25;;;1.80;;
24034;SDS011;12242;50.952;4.678;2023-02-28T15:08:39;3.70;;;1.50;;
24034;SDS011;12242;50.952;4.678;2023-02-28T15:11:08;4.43;;;1.92;;
24034;SDS011;12242;50.952;4.678;2023-02-28T15:13:48;2.83;;;1.40;;
24034;SDS011;12242;50.952;4.678;2023-02-28T15:16:19;4.53;;;1.67;;
24034;SDS011;12242;50.952;4.678;2023-02-28T15:19:31;4.63;;;1.80;;
24034;SDS011;12242;50.952;4.678;2023-02-28T15:21:48;6.65;;;2.00;;
24034;SDS011;12242;50.952;4.678;2023-02-28T15:26:53;4.03;;;1.95;;
24034;SDS011;12242;50.952;4.678;2023-02-28T15:29:24;3.47;;;1.60;;
24034;SDS011;12242;50.952;4.678;2023-02-28T15:32:03;4.75;;;2.00;;
24034;SDS011;12242;50.952;4.678;2023-02-28T15:39:57;6.57;;;1.80;;
24034;SDS011;12242;50.952;4.678;2023-02-28T15:42:34;6.15;;;1.90;;
24034;SDS011;12242;50.952;4.678;2023-02-28T15:45:02;5.60;;;2.03;;
24034;SDS011;12242;50.952;4.678;2023-02-28T15:47:30;8.07;;;1.63;;
24034;SDS011;12242;50.952;4.678;2023-02-28T15:49:58;3.95;;;1.40;;
24034;SDS011;12242;50.952;4.678;2023-02-28T15:52:40;4.25;;;1.50;;
24034;SDS011;12242;50.952;4.678;2023-02-28T15:55:11;4.63;;;1.55;;
24034;SDS011;12242;50.952;4.678;2023-02-28T15:57:48;3.63;;;1.77;;
24034;SDS011;12242;50.952;4.678;2023-02-28T16:00:21;4.35;;;1.70;;
24034;SDS011;12242;50.952;4.678;2023-02-28T16:02:51;6.15;;;1.88;;
24034;SDS011;12242;50.952;4.678;2023-02-28T16:07:55;3.53;;;1.83;;
24034;SDS011;12242;50.952;4.678;2023-02-28T16:10:24;3.33;;;1.60;;
24034;SDS011;12242;50.952;4.678;2023-02-28T16:12:54;4.63;;;1.90;;
24034;SDS011;12242;50.952;4.678;2023-02-28T16:15:24;5.35;;;1.70;;
24034;SDS011;12242;50.952;4.678;2023-02-28T16:17:53;3.03;;;1.65;;
24034;SDS011;12242;50.952;4.678;2023-02-28T16:20:22;3.38;;;1.55;;
24034;SDS011;12242;50.952;4.678;2023-02-28T16:22:50;5.18;;;1.80;;
24034;SDS011;12242;50.952;4.678;2023-02-28T16:25:19;4.45;;;1.83;;
24034;SDS011;12242;50.952;4.678;2023-02-28T16:27:50;5.50;;;1.90;;
24034;SDS011;12242;50.952;4.678;2023-02-28T16:30:25;5.97;;;1.83;;
24034;SDS011;12242;50.952;4.678;2023-02-28T16:32:54;2.63;;;1.50;;
24034;SDS011;12242;50.952;4.678;2023-02-28T16:35:23;6.45;;;2.20;;
24034;SDS011;12242;50.952;4.678;2023-02-28T16:37:51;4.05;;;1.52;;
24034;SDS011;12242;50.952;4.678;2023-02-28T16:40:20;4.80;;;1.75;;
24034;SDS011;12242;50.952;4.678;2023-02-28T16:42:50;3.33;;;1.50;;
24034;SDS011;12242;50.952;4.678;2023-02-28T16:45:22;5.15;;;1.70;;
24034;SDS011;12242;50.952;4.678;2023-02-28T16:47:51;4.75;;;1.70;;
24034;SDS011;12242;50.952;4.678;2023-02-28T16:50:20;4.43;;;1.90;;
24034;SDS011;12242;50.952;4.678;2023-02-28T16:52:53;6.18;;;1.83;;
24034;SDS011;12242;50.952;4.678;2023-02-28T16:55:22;5.18;;;1.80;;
24034;SDS011;12242;50.952;4.678;2023-02-28T16:57:55;4.15;;;1.70;;
24034;SDS011;12242;50.952;4.678;2023-02-28T17:00:25;5.50;;;1.80;;
24034;SDS011;12242;50.952;4.678;2023-02-28T17:02:54;4.05;;;1.80;;
24034;SDS011;12242;50.952;4.678;2023-02-28T17:05:22;5.28;;;1.90;;
24034;SDS011;12242;50.952;4.678;2023-02-28T17:07:51;5.10;;;1.88;;
24034;SDS011;12242;50.952;4.678;2023-02-28T17:10:22;4.45;;;1.88;;
24034;SDS011;12242;50.952;4.678;2023-02-28T17:12:52;4.40;;;1.50;;
24034;SDS011;12242;50.952;4.678;2023-02-28T17:15:28;4.47;;;2.17;;
24034;SDS011;12242;50.952;4.678;2023-02-28T17:17:57;6.85;;;1.98;;
24034;SDS011;12242;50.952;4.678;2023-02-28T17:20:25;5.13;;;1.85;;
24034;SDS011;12242;50.952;4.678;2023-02-28T17:22:53;5.60;;;2.28;;
24034;SDS011;12242;50.952;4.678;2023-02-28T17:25:22;6.88;;;1.80;;
24034;SDS011;12242;50.952;4.678;2023-02-28T17:27:50;8.73;;;1.95;;
24034;SDS011;12242;50.952;4.678;2023-02-28T17:30:19;5.32;;;2.22;;
24034;SDS011;12242;50.952;4.678;2023-02-28T17:32:48;5.75;;;2.38;;
24034;SDS011;12242;50.952;4.678;2023-02-28T17:35:16;5.30;;;2.20;;
24034;SDS011;12242;50.952;4.678;2023-02-28T17:37:44;4.95;;;2.10;;
24034;SDS011;12242;50.952;4.678;2023-02-28T17:40:15;6.18;;;1.95;;
24034;SDS011;12242;50.952;4.678;2023-02-28T17:42:45;6.32;;;2.30;;
24034;SDS011;12242;50.952;4.678;2023-02-28T17:45:14;4.70;;;2.10;;
24034;SDS011;12242;50.952;4.678;2023-02-28T17:47:43;5.70;;;2.22;;